createdAt,value
2019-03-25T00:02:23.233Z,4.00
2019-03-25T00:04:51.931Z,4.00
2019-03-25T00:07:20.754Z,4.00
2019-03-25T00:09:49.865Z,3.90
2019-03-25T00:12:18.943Z,3.90
2019-03-25T00:14:47.674Z,3.90
2019-03-25T00:17:19.146Z,3.90
2019-03-25T00:19:47.860Z,4.00
2019-03-25T00:22:16.549Z,4.00
2019-03-25T00:24:45.276Z,4.00
2019-03-25T00:27:13.988Z,3.90
2019-03-25T00:29:42.664Z,4.00
2019-03-25T00:32:14.494Z,3.90
2019-03-25T00:34:43.198Z,3.90
2019-03-25T00:37:11.939Z,3.90
2019-03-25T00:39:40.751Z,3.90
2019-03-25T00:42:09.764Z,3.90
2019-03-25T00:44:39.053Z,3.80
2019-03-25T00:47:07.688Z,3.90
2019-03-25T00:49:38.424Z,3.80
2019-03-25T00:52:07.242Z,3.70
2019-03-25T00:54:35.940Z,3.80
2019-03-25T00:57:04.650Z,3.70
2019-03-25T00:59:33.380Z,3.70
2019-03-25T01:02:02.292Z,3.70
2019-03-25T01:04:31.308Z,3.60
2019-03-25T01:07:01.790Z,3.70
2019-03-25T01:09:30.770Z,3.60
2019-03-25T01:11:59.722Z,3.60
2019-03-25T01:14:30.439Z,3.60
2019-03-25T01:16:59.262Z,3.60
2019-03-25T01:19:27.982Z,3.60
2019-03-25T01:21:56.726Z,3.50
2019-03-25T01:24:25.369Z,3.40
2019-03-25T01:26:54.082Z,3.30
2019-03-25T01:29:25.408Z,3.30
2019-03-25T01:32:00.649Z,3.30
2019-03-25T01:34:30.711Z,3.20
2019-03-25T01:37:00.972Z,3.20
2019-03-25T01:39:29.623Z,3.20
2019-03-25T01:41:58.365Z,3.20
2019-03-25T01:44:27.001Z,3.20
2019-03-25T01:46:55.639Z,3.20
2019-03-25T01:49:24.405Z,3.20
2019-03-25T01:51:53.042Z,3.20
2019-03-25T01:54:21.675Z,3.30
2019-03-25T01:56:50.417Z,3.30
2019-03-25T01:59:19.067Z,3.30
2019-03-25T02:01:47.775Z,3.40
2019-03-25T02:04:16.367Z,3.50
2019-03-25T02:06:44.999Z,3.60
2019-03-25T02:09:13.630Z,3.60
2019-03-25T02:11:42.377Z,3.60
2019-03-25T02:14:11.087Z,3.70
2019-03-25T02:16:39.730Z,3.70
2019-03-25T02:19:08.471Z,3.70
2019-03-25T02:21:37.111Z,3.70
2019-03-25T02:24:05.817Z,3.70
2019-03-25T02:26:36.030Z,3.70
2019-03-25T02:29:04.641Z,3.70
2019-03-25T02:31:33.290Z,3.70
2019-03-25T02:34:02.324Z,3.70
2019-03-25T02:36:31.027Z,3.80
2019-03-25T02:39:01.647Z,3.70
2019-03-25T02:41:30.032Z,3.70
2019-03-25T02:43:58.926Z,3.70
2019-03-25T02:46:27.594Z,3.70
2019-03-25T02:48:56.247Z,3.60
2019-03-25T02:51:26.535Z,3.60
2019-03-25T02:53:55.343Z,3.60
2019-03-25T02:56:24.014Z,3.60
2019-03-25T02:58:52.659Z,3.50
2019-03-25T03:01:21.295Z,3.50
2019-03-25T03:03:50.072Z,3.40
2019-03-25T03:06:18.776Z,3.40
2019-03-25T03:08:47.735Z,3.30
2019-03-25T03:11:16.580Z,3.40
2019-03-25T03:13:45.279Z,3.30
2019-03-25T03:16:13.911Z,3.30
2019-03-25T03:18:42.576Z,3.40
2019-03-25T03:21:11.291Z,3.40
2019-03-25T03:23:39.859Z,3.40
2019-03-25T03:26:09.279Z,3.40
2019-03-25T03:28:37.928Z,3.50
2019-03-25T03:31:06.757Z,3.50
2019-03-25T03:33:35.459Z,3.40
2019-03-25T03:36:04.165Z,3.30
2019-03-25T03:38:34.438Z,3.30
2019-03-25T03:41:03.485Z,3.20
2019-03-25T03:43:32.206Z,3.10
2019-03-25T03:46:00.840Z,3.10
2019-03-25T03:48:29.498Z,3.00
2019-03-25T03:50:58.733Z,3.00
2019-03-25T03:53:28.643Z,2.90
2019-03-25T03:56:11.971Z,2.80
2019-03-25T03:58:30.404Z,2.60
2019-03-25T04:00:59.119Z,2.50
2019-03-25T04:03:27.869Z,2.30
2019-03-25T04:05:56.505Z,2.30
2019-03-25T04:08:25.210Z,2.30
2019-03-25T04:10:55.111Z,2.30
2019-03-25T04:13:23.759Z,2.30
2019-03-25T04:15:52.466Z,2.30
2019-03-25T04:18:21.133Z,2.40
2019-03-25T04:20:49.712Z,2.40
2019-03-25T04:23:18.352Z,2.40
2019-03-25T04:25:47.021Z,2.40
2019-03-25T04:28:17.315Z,2.50
2019-03-25T04:30:46.411Z,2.40
2019-03-25T04:33:16.927Z,2.40
2019-03-25T04:35:46.363Z,2.40
2019-03-25T04:38:15.248Z,2.40
2019-03-25T04:40:44.237Z,2.30
2019-03-25T04:43:13.434Z,2.30
2019-03-25T04:45:42.362Z,2.30
2019-03-25T04:48:12.900Z,2.40
2019-03-25T04:50:42.872Z,2.40
2019-03-25T04:53:11.772Z,2.40
2019-03-25T04:55:40.761Z,2.40
2019-03-25T04:58:14.108Z,2.40
2019-03-25T05:00:43.058Z,2.40
2019-03-25T05:03:12.780Z,2.30
2019-03-25T05:05:41.488Z,2.30
2019-03-25T05:08:12.565Z,2.30
2019-03-25T05:10:41.357Z,2.30
2019-03-25T05:13:09.971Z,2.40
2019-03-25T05:15:38.673Z,2.40
2019-03-25T05:18:07.639Z,2.40
2019-03-25T05:20:37.749Z,2.40
2019-03-25T05:23:06.395Z,2.30
2019-03-25T05:25:35.065Z,2.40
2019-03-25T05:28:03.697Z,2.40
2019-03-25T05:30:36.051Z,2.40
2019-03-25T05:33:05.040Z,2.50
2019-03-25T05:35:33.746Z,2.60
2019-03-25T05:38:02.515Z,2.70
2019-03-25T05:40:31.293Z,2.70
2019-03-25T05:42:59.896Z,2.80
2019-03-25T05:45:28.540Z,3.00
2019-03-25T05:47:57.269Z,3.20
2019-03-25T05:50:25.977Z,3.30
2019-03-25T05:52:54.678Z,3.50
2019-03-25T05:55:23.685Z,3.50
2019-03-25T05:57:52.448Z,3.50
2019-03-25T06:00:23.047Z,3.50
2019-03-25T06:02:51.790Z,3.60
2019-03-25T06:05:20.432Z,3.60
2019-03-25T06:07:49.243Z,3.70
2019-03-25T06:10:18.503Z,3.70
2019-03-25T06:12:47.215Z,3.70
2019-03-25T06:15:16.017Z,3.70
2019-03-25T06:17:44.686Z,3.80
2019-03-25T06:20:13.980Z,3.70
2019-03-25T06:22:42.916Z,3.80
2019-03-25T06:25:12.069Z,3.80
2019-03-25T06:27:40.757Z,3.80
2019-03-25T06:30:10.562Z,3.90
2019-03-25T06:32:39.320Z,3.90
2019-03-25T06:35:09.069Z,3.80
2019-03-25T06:37:43.474Z,3.80
2019-03-25T06:40:12.398Z,3.80
2019-03-25T06:42:43.823Z,3.70
2019-03-25T06:45:12.638Z,3.70
2019-03-25T06:47:41.980Z,3.70
2019-03-25T06:50:14.632Z,3.80
2019-03-25T06:52:43.595Z,3.90
2019-03-25T06:55:12.341Z,3.90
2019-03-25T06:57:41.044Z,4.00
2019-03-25T07:00:10.842Z,4.00
2019-03-25T07:02:39.639Z,3.90
2019-03-25T07:05:08.938Z,3.90
2019-03-25T07:07:38.132Z,3.90
2019-03-25T07:10:07.746Z,4.10
2019-03-25T07:12:37.654Z,4.10
2019-03-25T07:15:12.049Z,4.10
2019-03-25T07:17:40.728Z,4.20
2019-03-25T07:20:10.836Z,4.30
2019-03-25T07:22:39.479Z,4.40
2019-03-25T07:25:08.300Z,4.60
2019-03-25T07:27:37.468Z,4.80
2019-03-25T07:30:08.163Z,4.80
2019-03-25T07:32:38.628Z,4.90
2019-03-25T07:35:08.630Z,4.90
2019-03-25T07:37:39.487Z,5.00
2019-03-25T07:40:09.040Z,5.10
2019-03-25T07:42:37.733Z,5.20
2019-03-25T07:45:09.937Z,5.10
2019-03-25T07:47:38.704Z,5.20
2019-03-25T07:50:07.936Z,5.30
2019-03-25T07:52:36.634Z,5.80
2019-03-25T07:55:07.000Z,6.00
2019-03-25T07:57:43.680Z,6.10
2019-03-25T08:00:14.375Z,6.00
2019-03-25T08:02:43.289Z,6.10
2019-03-25T08:05:12.561Z,5.90
2019-03-25T08:07:41.417Z,5.80
2019-03-25T08:10:10.420Z,5.70
2019-03-25T08:12:39.325Z,5.50
2019-03-25T08:15:08.853Z,5.30
2019-03-25T08:17:40.149Z,5.30
2019-03-25T08:20:11.652Z,5.30
2019-03-25T08:22:41.278Z,5.30
2019-03-25T08:25:10.878Z,5.60
2019-03-25T08:30:28.285Z,6.10
2019-03-25T08:32:57.100Z,6.40
2019-03-25T08:35:28.564Z,6.40
2019-03-25T08:37:57.751Z,6.30
2019-03-25T08:40:29.683Z,6.20
2019-03-25T08:43:02.697Z,6.00
2019-03-25T08:45:32.573Z,5.80
2019-03-25T08:48:01.743Z,5.90
2019-03-25T08:50:30.537Z,6.20
2019-03-25T08:52:59.494Z,6.50
2019-03-25T08:55:28.302Z,7.00
2019-03-25T08:57:59.021Z,7.20
2019-03-25T09:00:27.565Z,6.80
2019-03-25T09:02:57.037Z,6.60
2019-03-25T09:05:25.769Z,6.30
2019-03-25T09:07:54.728Z,6.30
2019-03-25T09:10:23.549Z,6.20
2019-03-25T09:12:53.195Z,6.00
2019-03-25T09:15:26.322Z,5.90
2019-03-25T09:17:58.944Z,5.90
2019-03-25T09:20:28.171Z,5.90
2019-03-25T09:23:01.387Z,6.00
2019-03-25T09:25:30.071Z,6.00
2019-03-25T09:27:59.097Z,5.90
2019-03-25T09:30:53.826Z,5.80
2019-03-25T09:33:22.738Z,6.10
2019-03-25T09:35:53.511Z,6.40
2019-03-25T09:38:26.986Z,6.40
2019-03-25T09:40:55.930Z,6.30
2019-03-25T09:43:24.570Z,6.10
2019-03-25T09:45:59.901Z,5.90
2019-03-25T09:48:28.598Z,6.00
2019-03-25T09:50:58.385Z,6.30
2019-03-25T09:53:27.504Z,6.40
2019-03-25T09:55:56.583Z,6.30
2019-03-25T09:58:35.729Z,6.00
2019-03-25T10:00:56.757Z,5.70
2019-03-25T10:03:25.425Z,5.40
2019-03-25T10:05:55.879Z,5.40
2019-03-25T10:08:26.291Z,5.50
2019-03-25T10:10:57.618Z,5.50
2019-03-25T10:13:29.406Z,5.50
2019-03-25T10:15:58.072Z,5.60
2019-03-25T10:18:28.205Z,5.70
2019-03-25T10:20:58.144Z,6.00
2019-03-25T10:23:27.764Z,6.00
2019-03-25T10:25:57.258Z,6.00
2019-03-25T10:28:25.974Z,5.90
2019-03-25T10:30:59.466Z,6.50
2019-03-25T10:33:28.170Z,7.00
2019-03-25T10:35:58.449Z,7.50
2019-03-25T10:38:27.176Z,8.00
2019-03-25T10:40:58.175Z,8.90
2019-03-25T10:43:28.124Z,9.40
2019-03-25T10:45:57.155Z,10.00
2019-03-25T10:48:25.878Z,10.00
2019-03-25T10:50:57.883Z,9.80
2019-03-25T10:53:29.528Z,9.40
2019-03-25T10:56:01.223Z,9.10
2019-03-25T10:58:31.127Z,8.90
2019-03-25T11:01:00.386Z,8.60
2019-03-25T11:03:33.223Z,8.90
2019-03-25T11:06:03.412Z,9.20
2019-03-25T11:08:32.163Z,9.30
2019-03-25T11:11:02.276Z,8.80
2019-03-25T11:13:30.909Z,8.40
2019-03-25T11:15:59.562Z,8.20
2019-03-25T11:18:34.909Z,7.90
2019-03-25T11:21:05.536Z,7.40
2019-03-25T11:23:34.253Z,6.90
2019-03-25T11:26:02.897Z,6.60
2019-03-25T11:28:33.931Z,6.30
2019-03-25T11:31:04.353Z,5.80
2019-03-25T11:33:35.915Z,5.60
2019-03-25T11:36:04.990Z,5.80
2019-03-25T11:38:33.753Z,6.00
2019-03-25T11:41:02.424Z,6.30
2019-03-25T11:43:31.119Z,6.80
2019-03-25T11:46:01.454Z,7.30
2019-03-25T11:48:30.283Z,7.60
2019-03-25T11:51:00.527Z,7.70
2019-03-25T11:53:29.875Z,7.50
2019-03-25T11:55:58.587Z,7.60
2019-03-25T11:58:31.540Z,8.20
2019-03-25T12:01:06.415Z,9.20
2019-03-25T12:03:38.603Z,10.00
2019-03-25T12:06:07.308Z,11.10
2019-03-25T12:08:38.549Z,11.20
2019-03-25T12:11:07.457Z,12.10
2019-03-25T12:13:42.176Z,11.50
2019-03-25T12:16:13.745Z,10.90
2019-03-25T12:18:42.415Z,10.50
2019-03-25T12:21:12.284Z,10.30
2019-03-25T12:23:41.125Z,10.30
2019-03-25T12:26:12.625Z,10.00
2019-03-25T12:28:44.177Z,10.20
2019-03-25T12:31:12.944Z,10.40
2019-03-25T12:33:44.409Z,10.70
2019-03-25T12:36:20.714Z,11.30
2019-03-25T12:38:49.445Z,11.30
2019-03-25T12:41:28.476Z,11.50
2019-03-25T12:44:00.080Z,11.60
2019-03-25T12:46:30.199Z,11.30
2019-03-25T12:49:02.223Z,10.80
2019-03-25T12:51:39.870Z,10.60
2019-03-25T12:54:08.575Z,10.20
2019-03-25T12:56:37.257Z,9.90
2019-03-25T12:59:10.314Z,9.70
2019-03-25T13:01:52.994Z,9.40
2019-03-25T13:04:17.032Z,8.90
2019-03-25T13:06:48.718Z,8.60
2019-03-25T13:09:22.162Z,8.80
2019-03-25T13:11:52.352Z,8.80
2019-03-25T13:14:24.176Z,8.30
2019-03-25T13:16:54.752Z,7.70
2019-03-25T13:19:26.185Z,7.30
2019-03-25T13:21:56.818Z,7.10
2019-03-25T13:24:25.302Z,6.90
2019-03-25T13:27:13.573Z,6.70
2019-03-25T13:29:52.052Z,6.50
2019-03-25T13:32:14.730Z,6.40
2019-03-25T13:34:45.856Z,6.70
2019-03-25T13:37:16.578Z,7.40
2019-03-25T13:39:48.074Z,8.10
2019-03-25T13:42:16.929Z,8.70
2019-03-25T13:44:45.666Z,9.20
2019-03-25T13:47:16.435Z,9.70
2019-03-25T13:49:45.150Z,10.10
2019-03-25T13:52:16.832Z,10.60
2019-03-25T13:54:45.818Z,10.90
2019-03-25T13:57:15.488Z,10.90
2019-03-25T13:59:44.376Z,10.40
2019-03-25T14:02:13.372Z,9.80
2019-03-25T14:04:42.015Z,9.50
2019-03-25T14:07:18.672Z,9.20
2019-03-25T14:09:50.126Z,8.90
2019-03-25T14:12:21.428Z,8.60
2019-03-25T14:14:49.430Z,8.30
2019-03-25T14:17:18.435Z,8.00
2019-03-25T14:19:48.680Z,7.40
2019-03-25T14:22:19.150Z,7.00
2019-03-25T14:24:50.918Z,6.70
2019-03-25T14:27:19.612Z,6.90
2019-03-25T14:29:48.268Z,7.20
2019-03-25T14:32:19.152Z,7.60
2019-03-25T14:34:48.128Z,7.80
2019-03-25T14:37:16.954Z,7.90
2019-03-25T14:39:45.688Z,8.10
2019-03-25T14:42:17.631Z,8.40
2019-03-25T14:44:46.306Z,8.70
2019-03-25T14:47:16.649Z,8.60
2019-03-25T14:49:46.238Z,8.60
2019-03-25T14:52:15.179Z,8.60
2019-03-25T14:54:43.888Z,8.40
2019-03-25T14:57:12.524Z,8.20
2019-03-25T14:59:44.187Z,8.10
2019-03-25T15:02:12.848Z,8.10
2019-03-25T15:04:42.700Z,8.10
2019-03-25T15:07:11.407Z,8.20
2019-03-25T15:09:40.060Z,8.20
2019-03-25T15:12:09.015Z,8.30
2019-03-25T15:14:37.846Z,8.40
2019-03-25T15:17:06.891Z,8.30
2019-03-25T15:19:38.991Z,8.30
2019-03-25T15:22:07.882Z,8.20
2019-03-25T15:24:44.500Z,8.20
2019-03-25T15:27:15.141Z,8.10
2019-03-25T15:29:43.808Z,8.00
2019-03-25T15:32:12.459Z,8.00
2019-03-25T15:34:45.491Z,7.90
2019-03-25T15:37:14.518Z,7.80
2019-03-25T15:39:46.908Z,7.60
2019-03-25T15:42:13.634Z,7.60
2019-03-25T15:44:45.291Z,7.30
2019-03-25T15:47:14.249Z,7.10
2019-03-25T15:49:48.460Z,7.00
2019-03-25T15:52:18.889Z,6.90
2019-03-25T15:54:49.225Z,6.80
2019-03-25T15:57:17.994Z,6.70
2019-03-25T15:59:48.275Z,6.70
2019-03-25T16:02:17.461Z,6.60
2019-03-25T16:04:49.918Z,6.40
2019-03-25T16:07:19.664Z,6.20
2019-03-25T16:09:49.919Z,6.10
2019-03-25T16:12:18.821Z,6.00
2019-03-25T16:14:47.540Z,6.00
2019-03-25T16:17:16.257Z,5.90
2019-03-25T16:19:52.004Z,5.80
2019-03-25T16:22:20.790Z,5.90
2019-03-25T16:24:49.524Z,5.90
2019-03-25T16:27:18.270Z,5.90
2019-03-25T16:29:48.886Z,6.00
2019-03-25T16:32:18.263Z,6.10
2019-03-25T16:34:47.373Z,6.10
2019-03-25T16:37:16.800Z,6.10
2019-03-25T16:39:47.146Z,6.10
2019-03-25T16:42:15.984Z,6.10
2019-03-25T16:44:44.637Z,6.20
2019-03-25T16:47:15.255Z,6.20
2019-03-25T16:49:44.267Z,6.10
2019-03-25T16:52:13.162Z,6.00
2019-03-25T16:54:41.864Z,6.00
2019-03-25T16:57:10.506Z,5.90
2019-03-25T16:59:42.808Z,5.80
2019-03-25T17:02:14.246Z,5.70
2019-03-25T17:04:46.594Z,5.60
2019-03-25T17:07:15.274Z,5.50
2019-03-25T17:09:44.242Z,5.50
2019-03-25T17:12:20.793Z,5.50
2019-03-25T17:14:49.559Z,5.50
2019-03-25T17:17:19.560Z,5.50
2019-03-25T17:19:48.510Z,5.40
2019-03-25T17:22:17.298Z,5.40
2019-03-25T17:24:47.982Z,5.40
2019-03-25T17:27:25.817Z,5.30
2019-03-25T17:29:53.290Z,5.30
2019-03-25T17:32:32.831Z,5.20
2019-03-25T17:35:01.443Z,5.20
2019-03-25T17:37:33.288Z,5.20
2019-03-25T17:40:02.381Z,5.20
2019-03-25T17:42:35.708Z,5.20
2019-03-25T17:45:08.710Z,5.20
2019-03-25T17:47:40.145Z,5.10
2019-03-25T17:50:11.781Z,5.10
2019-03-25T17:52:46.627Z,5.10
2019-03-25T17:55:18.522Z,5.00
2019-03-25T17:57:47.156Z,4.90
2019-03-25T18:00:17.562Z,4.80
2019-03-25T18:02:46.448Z,4.80
2019-03-25T18:05:15.064Z,4.70
2019-03-25T18:07:45.277Z,4.60
2019-03-25T18:10:15.695Z,4.70
2019-03-25T18:12:44.411Z,4.70
2019-03-25T18:15:16.796Z,4.60
2019-03-25T18:17:47.869Z,4.60
2019-03-25T18:20:30.303Z,4.60
2019-03-25T18:23:07.419Z,4.60
2019-03-25T18:25:37.586Z,4.60
2019-03-25T18:28:06.292Z,4.50
2019-03-25T18:30:35.474Z,4.40
2019-03-25T18:33:04.216Z,4.40
2019-03-25T18:35:32.912Z,4.40
2019-03-25T18:38:01.655Z,4.30
2019-03-25T18:40:30.362Z,4.30
2019-03-25T18:43:03.361Z,4.30
2019-03-25T18:45:33.690Z,4.30
2019-03-25T18:48:02.482Z,4.20
2019-03-25T18:50:31.362Z,4.20
2019-03-25T18:53:00.270Z,4.20
2019-03-25T18:55:29.400Z,4.20
2019-03-25T18:57:58.120Z,4.20
2019-03-25T19:00:36.465Z,4.20
2019-03-25T19:03:08.456Z,4.30
2019-03-25T19:05:38.634Z,4.30
2019-03-25T19:08:10.835Z,4.40
2019-03-25T19:10:48.230Z,4.40
2019-03-25T19:13:17.510Z,4.50
2019-03-25T19:15:49.202Z,4.50
2019-03-25T19:18:18.093Z,4.50
2019-03-25T19:20:46.776Z,4.50
2019-03-25T19:23:15.393Z,4.50
2019-03-25T19:25:45.892Z,4.50
2019-03-25T19:28:14.540Z,4.40
2019-03-25T19:30:43.205Z,4.40
2019-03-25T19:33:12.195Z,4.40
2019-03-25T19:35:42.971Z,4.40
2019-03-25T19:38:15.063Z,4.30
2019-03-25T19:40:43.782Z,4.40
2019-03-25T19:43:17.696Z,4.40
2019-03-25T19:45:46.397Z,4.40
2019-03-25T19:48:15.362Z,4.40
2019-03-25T19:50:44.035Z,4.50
2019-03-25T19:53:19.091Z,4.50
2019-03-25T19:55:43.008Z,4.50
2019-03-25T19:58:11.972Z,4.50
2019-03-25T20:00:41.173Z,4.60
2019-03-25T20:03:11.778Z,4.60
2019-03-25T20:05:40.810Z,4.60
2019-03-25T20:08:09.730Z,4.60
2019-03-25T20:10:39.492Z,4.60
2019-03-25T20:13:09.660Z,4.60
2019-03-25T20:15:45.845Z,4.60
2019-03-25T20:18:09.351Z,4.60
2019-03-25T20:20:38.285Z,4.60
2019-03-25T20:23:07.025Z,4.70
2019-03-25T20:25:38.583Z,4.60
2019-03-25T20:28:09.687Z,4.70
2019-03-25T20:30:41.908Z,4.70
2019-03-25T20:33:14.813Z,4.70
2019-03-25T20:35:43.513Z,4.60
2019-03-25T20:38:13.889Z,4.60
2019-03-25T20:40:54.969Z,4.70
2019-03-25T20:43:27.222Z,4.70
2019-03-25T20:45:55.909Z,4.70
2019-03-25T20:48:26.623Z,4.70
2019-03-25T20:50:57.186Z,4.70
2019-03-25T20:53:25.856Z,4.80
2019-03-25T20:55:59.113Z,4.70
2019-03-25T20:58:30.741Z,4.70
2019-03-25T21:00:59.416Z,4.70
2019-03-25T21:03:28.404Z,4.70
2019-03-25T21:05:57.195Z,4.70
2019-03-25T21:08:27.312Z,4.60
2019-03-25T21:11:02.092Z,4.60
2019-03-25T21:13:31.803Z,4.60
2019-03-25T21:16:02.459Z,4.50
2019-03-25T21:18:32.625Z,4.50
2019-03-25T21:21:01.385Z,4.50
2019-03-25T21:23:30.156Z,4.40
2019-03-25T21:26:03.786Z,4.40
2019-03-25T21:28:32.761Z,4.40
2019-03-25T21:31:01.348Z,4.40
2019-03-25T21:33:32.432Z,4.40
2019-03-25T21:36:03.072Z,4.50
2019-03-25T21:38:31.772Z,4.50
2019-03-25T21:41:03.018Z,4.50
2019-03-25T21:43:34.418Z,4.60
2019-03-25T21:46:05.194Z,4.60
2019-03-25T21:48:35.435Z,4.60
2019-03-25T21:51:08.809Z,4.60
2019-03-25T21:53:39.328Z,4.70
2019-03-25T21:56:08.317Z,4.70
2019-03-25T21:58:37.026Z,4.70
2019-03-25T22:01:05.746Z,4.70
2019-03-25T22:03:34.464Z,4.70
2019-03-25T22:06:03.167Z,4.80
2019-03-25T22:08:31.831Z,4.80
2019-03-25T22:11:00.527Z,4.80
2019-03-25T22:13:29.197Z,4.70
2019-03-25T22:16:00.716Z,4.70
2019-03-25T22:18:37.781Z,4.70
2019-03-25T22:21:09.700Z,4.70
2019-03-25T22:23:41.071Z,4.80
2019-03-25T22:26:11.757Z,4.70
2019-03-25T22:28:45.004Z,4.80
2019-03-25T22:31:14.943Z,4.70
2019-03-25T22:33:47.870Z,4.80
2019-03-25T22:36:16.738Z,4.80
2019-03-25T22:38:47.022Z,4.80
2019-03-25T22:41:17.652Z,4.80
2019-03-25T22:43:50.779Z,4.80
2019-03-25T22:46:21.146Z,4.80
2019-03-25T22:48:49.768Z,4.80
2019-03-25T22:51:28.488Z,4.80
2019-03-25T22:53:52.771Z,4.90
2019-03-25T22:56:23.610Z,4.90
2019-03-25T22:58:55.319Z,4.80
2019-03-25T23:01:25.626Z,4.80
2019-03-25T23:03:54.333Z,4.90
2019-03-25T23:06:22.984Z,4.80
2019-03-25T23:08:51.900Z,4.80
2019-03-25T23:11:20.600Z,4.80
2019-03-25T23:13:49.584Z,4.90
2019-03-25T23:16:18.281Z,4.90
2019-03-25T23:18:46.842Z,4.90
2019-03-25T23:21:17.101Z,4.90
2019-03-25T23:23:45.754Z,4.90
2019-03-25T23:26:14.313Z,4.90
2019-03-25T23:28:42.919Z,4.90
2019-03-25T23:31:11.613Z,4.90
2019-03-25T23:33:51.633Z,4.90
2019-03-25T23:36:10.675Z,4.80
2019-03-25T23:38:39.443Z,4.80
2019-03-25T23:41:08.151Z,4.80
2019-03-25T23:43:39.990Z,4.80
2019-03-25T23:46:08.732Z,4.80
2019-03-25T23:48:37.714Z,4.80
2019-03-25T23:51:06.464Z,4.80
2019-03-25T23:53:35.089Z,4.80
2019-03-25T23:56:03.740Z,4.80
2019-03-25T23:58:32.409Z,4.70
